Time;durP1;ratioP1;P1;durP2;ratioP2;P2;SDS_P1;SDS_P2;PMS_P1;PMS_P2;Temp;Humidity;BMP_temperature;BMP_pressure;BME280_temperature;BME280_humidity;BME280_pressure;Samples;Min_cycle;Max_cycle;Signal;HPM_P1;HPM_P2
2022/03/25 00:00:57;;;;;;;;;;;;;;;25.97;56.17;97270.98;621373;228;65537;-70
2022/03/25 00:03:24;;;;;;;;;;;;;;;25.96;55.14;97277.47;621298;228;64821;-70
2022/03/25 00:05:52;;;;;;;;;;;;;;;25.95;55.12;97284.75;621296;228;66989;-70
2022/03/25 00:08:19;;;;;;;;;;;;;;;25.95;55.27;97283.96;621276;228;66572;-70
2022/03/25 00:10:47;;;;;;;;;;;;;;;25.95;54.93;97292.03;621330;228;65273;-70
2022/03/25 00:13:14;;;;;;;;;;;;;;;25.93;55.25;97291.53;621349;228;67688;-70
2022/03/25 00:15:42;;;;;;;;;;;;;;;25.92;56.45;97285.34;621312;228;67683;-70
2022/03/25 00:18:09;;;;;;;;;;;;;;;25.91;54.81;97292.61;621689;228;65434;-70
2022/03/25 00:20:37;;;;;;;;;;;;;;;25.91;54.96;97295.30;622677;228;64474;-71
2022/03/25 00:23:05;;;;;;;;;;;;;;;25.90;55.33;97293.71;622676;228;66578;-70
2022/03/25 00:25:32;;;;;;;;;;;;;;;25.92;54.45;97290.73;622742;228;65317;-70
2022/03/25 00:28:00;;;;;;;;;;;;;;;25.89;56.02;97289.44;622693;228;64631;-70
2022/03/25 00:30:29;;;;;;;;;;;;;;;25.88;54.67;97285.13;622692;228;45544;-70
2022/03/25 00:32:56;;;;;;;;;;;;;;;25.89;53.95;97296.69;622641;228;65104;-70
2022/03/25 00:35:24;;;;;;;;;;;;;;;25.87;55.81;97293.52;622651;228;66527;-70
2022/03/25 00:37:52;;;;;;;;;;;;;;;25.87;54.65;97297.00;622689;228;66725;-70
2022/03/25 00:40:19;;;;;;;;;;;;;;;25.86;55.66;97287.34;622714;228;62965;-70
2022/03/25 00:42:47;;;;;;;;;;;;;;;25.84;53.53;97286.83;622685;228;66828;-70
2022/03/25 00:45:15;;;;;;;;;;;;;;;25.83;55.50;97287.90;622733;228;64853;-70
2022/03/25 00:47:42;;;;;;;;;;;;;;;25.83;55.14;97290.59;622629;228;62999;-73
2022/03/25 00:50:11;;;;;;;;;;;;;;;25.81;55.42;97291.95;622680;228;66863;-73
2022/03/25 00:52:39;;;;;;;;;;;;;;;25.82;55.59;97288.19;622715;228;66846;-72
2022/03/25 00:55:07;;;;;;;;;;;;;;;25.81;55.13;97284.70;622700;228;62981;-72
2022/03/25 00:57:34;;;;;;;;;;;;;;;25.80;56.09;97284.98;622664;228;66888;-73
2022/03/25 01:00:02;;;;;;;;;;;;;;;25.79;55.12;97286.88;622699;228;64568;-73
2022/03/25 01:02:30;;;;;;;;;;;;;;;25.79;55.11;97275.31;622676;228;63217;-73
2022/03/25 01:04:58;;;;;;;;;;;;;;;25.77;54.85;97275.59;622718;228;66788;-73
2022/03/25 01:07:25;;;;;;;;;;;;;;;25.76;56.77;97271.32;622737;228;64207;-73
2022/03/25 01:09:54;;;;;;;;;;;;;;;25.77;56.21;97277.50;622725;228;65908;-73
2022/03/25 01:12:21;;;;;;;;;;;;;;;25.75;54.79;97275.09;622742;228;64000;-73
2022/03/25 01:14:49;;;;;;;;;;;;;;;25.74;56.27;97268.12;622668;228;66366;-73
2022/03/25 01:17:17;;;;;;;;;;;;;;;25.75;55.69;97263.53;622716;228;65556;-73
2022/03/25 01:19:46;;;;;;;;;;;;;;;25.73;56.58;97263.84;621343;228;66726;-70
2022/03/25 01:22:15;;;;;;;;;;;;;;;25.74;56.79;97261.94;621348;228;66758;-72
2022/03/25 01:24:42;;;;;;;;;;;;;;;25.72;54.94;97258.73;621345;228;65363;-72
2022/03/25 01:27:10;;;;;;;;;;;;;;;25.71;55.70;97257.95;621333;228;64256;-72
2022/03/25 01:29:37;;;;;;;;;;;;;;;25.71;55.93;97257.16;621301;228;64132;-72
2022/03/25 01:32:07;;;;;;;;;;;;;;;25.70;56.17;97250.98;621364;228;65129;-72
2022/03/25 01:34:35;;;;;;;;;;;;;;;25.68;56.10;97251.27;621341;228;66928;-72
2022/03/25 01:37:03;;;;;;;;;;;;;;;25.69;56.37;97254.74;621371;228;64826;-72
2022/03/25 01:39:30;;;;;;;;;;;;;;;25.67;56.67;97256.92;621351;228;65456;-72
2022/03/25 01:41:59;;;;;;;;;;;;;;;25.66;56.60;97261.52;621328;228;66693;-72
2022/03/25 01:44:27;;;;;;;;;;;;;;;25.66;55.58;97255.34;621327;228;66698;-72
2022/03/25 01:46:57;;;;;;;;;;;;;;;25.66;57.43;97263.41;621329;228;65369;-72
2022/03/25 01:49:25;;;;;;;;;;;;;;;25.63;56.13;97256.73;621335;228;64827;-72
2022/03/25 01:51:54;;;;;;;;;;;;;;;25.63;54.86;97255.94;621313;228;66728;-72
2022/03/25 01:54:23;;;;;;;;;;;;;;;25.63;57.58;97261.31;621364;228;62945;-72
2022/03/25 01:56:53;;;;;;;;;;;;;;;25.61;57.08;97263.50;621388;228;66755;-72
2022/03/25 01:59:21;;;;;;;;;;;;;;;25.61;56.16;97268.88;621352;228;64212;-70
2022/03/25 02:01:49;;;;;;;;;;;;;;;25.60;57.77;97272.67;621372;228;65395;-70
2022/03/25 02:04:17;;;;;;;;;;;;;;;25.58;56.83;97270.27;621376;228;66933;-70
2022/03/25 02:06:45;;;;;;;;;;;;;;;25.58;55.89;97258.70;621310;228;66882;-70
2022/03/25 02:09:13;;;;;;;;;;;;;;;25.56;57.94;97266.27;621405;228;65040;-70
2022/03/25 02:11:41;;;;;;;;;;;;;;;25.58;58.34;97258.70;621342;228;66929;-69
2022/03/25 02:14:11;;;;;;;;;;;;;;;25.56;56.44;97263.58;621369;228;66846;-70
2022/03/25 02:16:40;;;;;;;;;;;;;;;25.52;58.82;97260.69;621334;227;62969;-69
2022/03/25 02:19:09;;;;;;;;;;;;;;;25.51;58.78;97259.09;622325;228;66896;-69
2022/03/25 02:21:38;;;;;;;;;;;;;;;25.49;59.94;97257.80;622780;228;66783;-70
2022/03/25 02:24:07;;;;;;;;;;;;;;;25.46;58.60;97251.91;622745;228;65417;-70
2022/03/25 02:26:35;;;;;;;;;;;;;;;25.47;59.33;97237.34;622721;228;64319;-70
2022/03/25 02:29:05;;;;;;;;;;;;;;;25.44;59.24;97235.25;622720;228;67199;-70
2022/03/25 02:31:32;;;;;;;;;;;;;;;25.43;60.39;97228.28;622704;228;65110;-69
2022/03/25 02:34:01;;;;;;;;;;;;;;;25.42;59.10;97229.35;622734;228;66897;-70
2022/03/25 02:36:29;;;;;;;;;;;;;;;25.44;59.19;97237.94;622406;228;64597;-69
2022/03/25 02:38:57;;;;;;;;;;;;;;;25.43;59.51;97240.94;622736;228;62933;-70
2022/03/25 02:41:24;;;;;;;;;;;;;;;25.42;60.31;97240.11;622734;228;66909;-70
2022/03/25 02:43:52;;;;;;;;;;;;;;;25.40;58.57;97247.70;622733;228;66596;-69
2022/03/25 02:46:19;;;;;;;;;;;;;;;25.41;60.51;97256.56;622749;228;63070;-70
2022/03/25 02:48:47;;;;;;;;;;;;;;;25.41;56.04;97251.98;622748;228;64540;-69
2022/03/25 02:51:14;;;;;;;;;;;;;;;25.41;58.75;97256.56;622725;228;66687;-69
2022/03/25 02:53:42;;;;;;;;;;;;;;;25.39;59.40;97259.54;622734;228;65370;-69
2022/03/25 02:56:09;;;;;;;;;;;;;;;25.38;59.63;97263.33;622721;228;66762;-72
2022/03/25 02:58:37;;;;;;;;;;;;;;;25.36;60.26;97256.65;622716;228;66623;-72
2022/03/25 03:01:06;;;;;;;;;;;;;;;25.37;59.07;97259.05;622726;228;65386;-72
2022/03/25 03:03:34;;;;;;;;;;;;;;;25.37;58.94;97267.13;622712;228;66750;-70
2022/03/25 03:06:02;;;;;;;;;;;;;;;25.36;59.56;97260.13;622715;228;66709;-69
2022/03/25 03:08:30;;;;;;;;;;;;;;;25.36;60.46;97268.20;622692;228;64922;-70
2022/03/25 03:11:00;;;;;;;;;;;;;;;25.34;59.44;97265.00;622660;228;66697;-69
2022/03/25 03:13:27;;;;;;;;;;;;;;;25.31;59.70;97265.59;622748;228;64159;-70
2022/03/25 03:15:54;;;;;;;;;;;;;;;25.31;60.61;97264.79;622674;228;63168;-70
2022/03/25 03:18:22;;;;;;;;;;;;;;;25.30;60.36;97271.27;622093;228;64301;-69
2022/03/25 03:20:49;;;;;;;;;;;;;;;25.28;59.38;97279.63;621331;228;64863;-70
2022/03/25 03:23:17;;;;;;;;;;;;;;;25.31;60.33;97275.55;621299;228;62989;-70
2022/03/25 03:25:44;;;;;;;;;;;;;;;25.28;59.87;97274.25;621390;228;64426;-70
2022/03/25 03:28:13;;;;;;;;;;;;;;;25.27;59.76;97278.04;621292;228;64559;-70
2022/03/25 03:30:40;;;;;;;;;;;;;;;25.26;59.50;97284.48;621321;228;65353;-70
2022/03/25 03:33:08;;;;;;;;;;;;;;;25.26;61.13;97295.25;621306;228;66724;-69
2022/03/25 03:35:36;;;;;;;;;;;;;;;25.24;60.15;97292.87;621328;228;66949;-70
2022/03/25 03:38:04;;;;;;;;;;;;;;;25.24;61.38;97289.38;621384;228;65034;-70
2022/03/25 03:40:32;;;;;;;;;;;;;;;25.22;61.13;97289.66;621292;228;66490;-70
2022/03/25 03:42:59;;;;;;;;;;;;;;;25.23;61.19;97288.56;621335;228;66652;-72
2022/03/25 03:45:27;;;;;;;;;;;;;;;25.21;60.52;97290.77;621298;228;63005;-72
2022/03/25 03:47:54;;;;;;;;;;;;;;;25.20;60.33;97293.73;621359;228;66837;-72
2022/03/25 03:50:22;;;;;;;;;;;;;;;25.20;61.63;97288.35;621350;228;66764;-72
2022/03/25 03:52:49;;;;;;;;;;;;;;;25.18;60.12;97296.73;621324;228;65077;-72
2022/03/25 03:55:18;;;;;;;;;;;;;;;25.18;60.12;97282.45;621323;228;66677;-72
2022/03/25 03:57:45;;;;;;;;;;;;;;;25.17;60.07;97278.19;621340;228;66798;-72
2022/03/25 04:00:14;;;;;;;;;;;;;;;25.16;61.56;97282.77;621337;228;65094;-72
2022/03/25 04:02:42;;;;;;;;;;;;;;;25.15;61.33;97288.42;621352;228;66674;-72
2022/03/25 04:05:10;;;;;;;;;;;;;;;25.15;61.15;97281.16;621381;228;66576;-70
2022/03/25 04:07:45;;;;;;;;;;;;;;;25.14;61.53;97278.73;621287;228;65067;-70
2022/03/25 04:10:13;;;;;;;;;;;;;;;25.12;61.86;97268.26;621281;228;67073;-70
2022/03/25 04:12:41;;;;;;;;;;;;;;;25.12;62.27;97284.39;621315;228;66875;-69
2022/03/25 04:15:15;;;;;;;;;;;;;;;25.11;61.63;97273.95;621311;228;65296;-70
2022/03/25 04:17:39;;;;;;;;;;;;;;;25.11;61.85;97285.50;621256;228;66762;-69
2022/03/25 04:20:07;;;;;;;;;;;;;;;25.11;60.80;97279.33;622671;228;66641;-70
2022/03/25 04:22:35;;;;;;;;;;;;;;;25.11;61.50;97284.70;622671;228;65416;-70
2022/03/25 04:25:04;;;;;;;;;;;;;;;25.09;61.77;97284.19;622686;228;66676;-69
2022/03/25 04:27:31;;;;;;;;;;;;;;;25.10;61.61;97283.09;622698;228;66532;-69
2022/03/25 04:29:59;;;;;;;;;;;;;;;25.08;61.32;97277.22;622722;228;65164;-69
2022/03/25 04:32:26;;;;;;;;;;;;;;;25.06;62.05;97282.88;622683;228;66675;-69
2022/03/25 04:34:54;;;;;;;;;;;;;;;25.07;62.32;97280.98;622691;228;66876;-73
2022/03/25 04:37:21;;;;;;;;;;;;;;;25.06;61.54;97279.39;622703;228;65504;-71
2022/03/25 04:39:48;;;;;;;;;;;;;;;25.05;62.30;97283.19;622714;228;66839;-71
2022/03/25 04:42:16;;;;;;;;;;;;;;;25.05;62.55;97277.81;622727;228;66643;-71
2022/03/25 04:44:43;;;;;;;;;;;;;;;25.03;62.96;97281.56;622715;228;65363;-71
2022/03/25 04:47:11;;;;;;;;;;;;;;;25.02;62.12;97279.19;622693;228;66693;-71
2022/03/25 04:49:38;;;;;;;;;;;;;;;25.01;62.45;97283.73;622671;228;64685;-71
2022/03/25 04:52:07;;;;;;;;;;;;;;;25.01;62.17;97283.73;622680;228;62978;-72
2022/03/25 04:54:34;;;;;;;;;;;;;;;25.01;62.29;97291.02;622694;228;66478;-73
2022/03/25 04:57:02;;;;;;;;;;;;;;;24.99;62.61;97290.50;622704;228;66697;-73
2022/03/25 04:59:31;;;;;;;;;;;;;;;24.99;62.83;97287.81;622606;228;65369;-74
2022/03/25 05:01:59;;;;;;;;;;;;;;;24.97;62.47;97295.39;622685;228;65522;-73
2022/03/25 05:04:26;;;;;;;;;;;;;;;24.97;62.81;97288.11;622672;228;64348;-73
2022/03/25 05:06:54;;;;;;;;;;;;;;;24.96;62.38;97289.22;622665;228;62968;-74
2022/03/25 05:09:21;;;;;;;;;;;;;;;24.96;62.43;97291.08;622690;228;64354;-73
2022/03/25 05:11:49;;;;;;;;;;;;;;;24.94;62.80;97294.08;622635;228;64208;-73
2022/03/25 05:14:20;;;;;;;;;;;;;;;24.94;62.87;97298.66;622689;228;47455;-74
2022/03/25 05:16:52;;;;;;;;;;;;;;;24.93;63.59;97295.14;622734;228;66676;-73
2022/03/25 05:19:20;;;;;;;;;;;;;;;24.92;62.75;97296.25;622703;228;64354;-72
2022/03/25 05:21:47;;;;;;;;;;;;;;;24.91;62.04;97299.20;622740;228;65100;-73
2022/03/25 05:24:17;;;;;;;;;;;;;;;24.90;62.07;97298.41;622708;228;63604;-73
2022/03/25 05:26:45;;;;;;;;;;;;;;;24.89;62.71;97291.45;622693;228;64273;-73
2022/03/25 05:29:15;;;;;;;;;;;;;;;24.89;63.10;97299.52;622699;228;48712;-71
2022/03/25 05:31:50;;;;;;;;;;;;;;;24.88;62.50;97287.17;622664;228;66518;-71
2022/03/25 05:34:15;;;;;;;;;;;;;;;24.88;62.61;97295.23;622470;228;66385;-71
2022/03/25 05:36:42;;;;;;;;;;;;;;;24.86;62.17;97283.97;622706;228;65306;-71
2022/03/25 05:39:14;;;;;;;;;;;;;;;24.86;62.04;97283.97;622651;228;66679;-71
2022/03/25 05:41:43;;;;;;;;;;;;;;;24.85;63.23;97279.66;622581;228;64906;-70
2022/03/25 05:44:11;;;;;;;;;;;;;;;24.86;62.87;97275.91;622638;228;65145;-71
2022/03/25 05:46:39;;;;;;;;;;;;;;;24.85;63.29;97270.80;622654;228;66817;-71
2022/03/25 05:49:06;;;;;;;;;;;;;;;24.85;62.61;97278.87;622667;228;64848;-71
2022/03/25 05:51:34;;;;;;;;;;;;;;;24.83;62.87;97281.86;622656;228;62969;-71
2022/03/25 05:54:03;;;;;;;;;;;;;;;24.85;63.97;97274.28;622551;228;66849;-71
2022/03/25 05:56:31;;;;;;;;;;;;;;;24.84;63.16;97271.91;622595;228;66636;-71
2022/03/25 05:59:10;;;;;;;;;;;;;;;24.83;63.76;97271.11;622656;228;63186;-71
2022/03/25 06:01:38;;;;;;;;;;;;;;;24.83;63.03;97267.60;615956;228;67467;-70
2022/03/25 06:04:06;;;;;;;;;;;;;;;24.82;63.25;97264.12;622711;228;64442;-71
2022/03/25 06:06:33;;;;;;;;;;;;;;;24.83;63.76;97270.28;622668;228;62975;-70
2022/03/25 06:09:01;;;;;;;;;;;;;;;24.82;63.70;97264.12;622633;228;64076;-70
2022/03/25 06:11:28;;;;;;;;;;;;;;;24.81;63.20;97263.33;622589;228;64664;-71
2022/03/25 06:13:55;;;;;;;;;;;;;;;24.81;64.27;97268.70;622633;228;62949;-71
2022/03/25 06:16:23;;;;;;;;;;;;;;;24.81;63.87;97267.91;622673;228;64840;-71
2022/03/25 06:18:52;;;;;;;;;;;;;;;24.80;63.44;97261.73;621776;227;65477;-71
2022/03/25 06:21:20;;;;;;;;;;;;;;;24.80;63.71;97272.48;621257;228;65380;-71
2022/03/25 06:23:47;;;;;;;;;;;;;;;24.79;63.60;97268.18;621303;228;64525;-71
2022/03/25 06:26:15;;;;;;;;;;;;;;;24.80;63.38;97266.32;621300;228;66840;-72
2022/03/25 06:28:43;;;;;;;;;;;;;;;24.79;64.05;97268.18;621337;228;65180;-71
2022/03/25 06:31:10;;;;;;;;;;;;;;;24.79;64.27;97259.33;621299;228;66633;-71
2022/03/25 06:33:38;;;;;;;;;;;;;;;24.78;64.07;97271.17;621095;227;66651;-70
2022/03/25 06:36:07;;;;;;;;;;;;;;;24.78;63.10;97263.11;621250;228;65357;-72
2022/03/25 06:38:35;;;;;;;;;;;;;;;24.78;64.13;97263.91;620801;228;64553;-71
2022/03/25 06:41:02;;;;;;;;;;;;;;;24.77;63.30;97262.32;621068;227;64775;-71
2022/03/25 06:43:30;;;;;;;;;;;;;;;24.77;63.76;97265.01;621329;228;62939;-70
2022/03/25 06:45:58;;;;;;;;;;;;;;;24.77;64.11;97264.19;621286;228;67078;-71
2022/03/25 06:48:26;;;;;;;;;;;;;;;24.77;64.04;97256.12;621168;228;67508;-71
2022/03/25 06:50:54;;;;;;;;;;;;;;;24.76;63.69;97265.28;621320;228;62791;-70
2022/03/25 06:53:25;;;;;;;;;;;;;;;24.76;64.00;97263.39;621336;228;66750;-69
2022/03/25 06:55:52;;;;;;;;;;;;;;;24.76;64.43;97259.91;620302;228;66315;-71
2022/03/25 06:58:20;;;;;;;;;;;;;;;24.75;64.64;97263.70;609672;232;63059;-73
2022/03/25 07:00:48;;;;;;;;;;;;;;;24.72;62.38;97262.38;609686;232;64430;-72
2022/03/25 07:03:15;;;;;;;;;;;;;;;24.76;64.48;97257.22;609518;232;64920;-72
2022/03/25 07:05:43;;;;;;;;;;;;;;;24.76;64.29;97259.91;609671;232;63063;-70
2022/03/25 07:08:11;;;;;;;;;;;;;;;24.76;65.09;97270.66;609675;232;66791;-71
2022/03/25 07:10:39;;;;;;;;;;;;;;;24.75;64.58;97269.07;609644;232;66749;-69
2022/03/25 07:13:07;;;;;;;;;;;;;;;24.74;64.77;97262.88;609644;232;65253;-69
2022/03/25 07:15:34;;;;;;;;;;;;;;;24.74;63.77;97262.88;609661;232;66906;-70
2022/03/25 07:18:02;;;;;;;;;;;;;;;24.76;64.67;97260.70;609669;232;66902;-72
2022/03/25 07:20:29;;;;;;;;;;;;;;;24.74;64.14;97262.88;609819;232;63141;-67
2022/03/25 07:22:57;;;;;;;;;;;;;;;24.72;62.56;97258.91;609688;232;65123;-67
2022/03/25 07:25:27;;;;;;;;;;;;;;;24.76;62.27;97251.84;609710;232;64635;-68
2022/03/25 07:27:54;;;;;;;;;;;;;;;24.78;63.83;97260.42;609687;232;66056;-69
2022/03/25 07:30:21;;;;;;;;;;;;;;;24.76;64.50;97252.64;609652;232;67176;-68
2022/03/25 07:32:49;;;;;;;;;;;;;;;24.78;63.72;97260.42;609710;232;66728;-70
2022/03/25 07:35:17;;;;;;;;;;;;;;;24.79;64.22;97248.58;609593;232;65552;-68
2022/03/25 07:37:45;;;;;;;;;;;;;;;24.82;63.74;97258.74;609659;232;64608;-68
2022/03/25 07:40:13;;;;;;;;;;;;;;;24.79;63.28;97260.12;609699;232;64591;-69
2022/03/25 07:42:42;;;;;;;;;;;;;;;24.80;64.36;97258.25;609734;232;65309;-68
2022/03/25 07:45:11;;;;;;;;;;;;;;;24.82;64.46;97245.30;609687;232;67668;-69
2022/03/25 07:47:42;;;;;;;;;;;;;;;24.81;63.47;97251.78;609742;232;66873;-70
2022/03/25 07:50:12;;;;;;;;;;;;;;;24.83;63.71;97262.22;609426;232;46072;-71
2022/03/25 07:52:42;;;;;;;;;;;;;;;24.84;62.91;97251.20;609601;232;64724;-68
2022/03/25 07:55:11;;;;;;;;;;;;;;;24.84;63.29;97243.13;609695;232;64375;-70
2022/03/25 07:57:39;;;;;;;;;;;;;;;24.85;62.93;97241.23;609449;232;63202;-69
2022/03/25 08:00:14;;;;;;;;;;;;;;;24.86;63.39;97245.55;609691;231;67173;-69
2022/03/25 08:02:42;;;;;;;;;;;;;;;24.86;61.77;97243.65;609716;232;64778;-69
2022/03/25 08:05:10;;;;;;;;;;;;;;;24.89;63.30;97240.38;609612;232;63284;-68
2022/03/25 08:07:42;;;;;;;;;;;;;;;24.90;62.37;97230.41;609724;232;64771;-73
2022/03/25 08:10:10;;;;;;;;;;;;;;;24.90;62.24;97236.59;609534;232;66534;-64
2022/03/25 08:12:37;;;;;;;;;;;;;;;24.92;62.82;97233.62;609692;232;65120;-70
2022/03/25 08:15:08;;;;;;;;;;;;;;;24.91;61.82;97238.20;609704;232;64355;-69
2022/03/25 08:17:45;;;;;;;;;;;;;;;24.94;61.92;97226.86;609602;232;67084;-70
2022/03/25 08:20:13;;;;;;;;;;;;;;;24.97;61.81;97241.61;609675;232;63876;-70
2022/03/25 08:22:40;;;;;;;;;;;;;;;24.98;61.06;97235.13;609619;232;64627;-67
2022/03/25 08:27:58;;;;;;;;;;;;;;;25.00;59.69;97233.75;609698;232;63448;-68
2022/03/25 08:30:25;;;;;;;;;;;;;;;25.02;61.06;97225.41;609658;232;64660;-68
2022/03/25 08:32:52;;;;;;;;;;;;;;;25.03;60.05;97237.75;609606;232;65704;-71
2022/03/25 08:35:20;;;;;;;;;;;;;;;25.03;61.11;97235.86;609216;232;65600;-69
2022/03/25 08:37:47;;;;;;;;;;;;;;;25.06;59.89;97236.38;609385;232;66667;-62
2022/03/25 08:40:15;;;;;;;;;;;;;;;25.07;61.03;97240.65;609694;232;64538;-61
2022/03/25 08:42:42;;;;;;;;;;;;;;;25.08;60.16;97240.37;609536;232;63178;-63
2022/03/25 08:45:13;;;;;;;;;;;;;;;25.10;59.52;97240.06;609560;232;65148;-62
2022/03/25 08:47:40;;;;;;;;;;;;;;;25.11;59.05;97237.09;609554;232;66815;-62
2022/03/25 08:50:09;;;;;;;;;;;;;;;25.12;59.22;97227.92;609582;232;63184;-62
2022/03/25 08:52:37;;;;;;;;;;;;;;;25.14;58.96;97239.20;609656;232;67004;-68
2022/03/25 08:55:05;;;;;;;;;;;;;;;25.14;59.56;97235.71;609552;232;66790;-69
2022/03/25 08:57:34;;;;;;;;;;;;;;;25.15;59.30;97238.12;609573;232;65529;-69
2022/03/25 09:00:03;;;;;;;;;;;;;;;25.17;58.82;97249.39;616421;228;64548;-68
2022/03/25 09:02:30;;;;;;;;;;;;;;;25.18;58.87;97251.02;616925;230;64387;-70
2022/03/25 09:08:20;;;;;;;;;;;;;;;25.21;59.20;97238.87;617069;230;66923;-67
2022/03/25 09:10:47;;;;;;;;;;;;;;;25.20;59.35;97237.25;617079;230;66825;-62
2022/03/25 09:13:15;;;;;;;;;;;;;;;25.21;58.42;97228.91;617076;230;65364;-68
2022/03/25 09:15:43;;;;;;;;;;;;;;;25.22;58.86;97232.39;616994;230;66941;-67
2022/03/25 09:18:10;;;;;;;;;;;;;;;25.23;58.67;97250.11;616950;229;66825;-67
2022/03/25 09:20:38;;;;;;;;;;;;;;;25.24;57.37;97238.28;616999;230;63303;-67
2022/03/25 09:23:05;;;;;;;;;;;;;;;25.25;58.03;97237.17;617026;230;64417;-67
2022/03/25 09:25:33;;;;;;;;;;;;;;;25.25;58.31;97240.66;617058;230;66309;-68
2022/03/25 09:28:00;;;;;;;;;;;;;;;25.26;58.17;97241.45;617032;230;65333;-73
2022/03/25 09:30:29;;;;;;;;;;;;;;;25.25;58.22;97261.38;617026;230;66669;-65
2022/03/25 09:32:57;;;;;;;;;;;;;;;25.26;58.57;97254.91;617018;230;66999;-57
2022/03/25 09:35:24;;;;;;;;;;;;;;;25.24;59.48;97252.52;617054;230;65295;-69
2022/03/25 09:37:52;;;;;;;;;;;;;;;25.24;59.22;97259.80;617054;230;66558;-57
2022/03/25 09:40:21;;;;;;;;;;;;;;;25.24;59.22;97259.80;617070;230;66605;-68
2022/03/25 10:19:37;;;;;;;;;;;;;;;25.28;57.09;97247.34;578551;245;38643;-71
2022/03/25 10:22:06;;;;;;;;;;;;;;;25.29;58.00;97259.72;578039;245;66797;-74
2022/03/25 10:24:40;;;;;;;;;;;;;;;25.29;56.68;97257.03;571915;245;68148;-73
2022/03/25 10:27:08;;;;;;;;;;;;;;;25.29;56.37;97254.34;578671;245;63422;-75
2022/03/25 10:29:36;;;;;;;;;;;;;;;25.30;56.60;97244.38;578804;245;64921;-74
2022/03/25 10:32:08;;;;;;;;;;;;;;;25.30;57.12;97247.86;578816;245;64589;-74
2022/03/25 10:34:37;;;;;;;;;;;;;;;25.31;57.47;97238.69;578578;242;65370;-76
2022/03/25 10:37:09;;;;;;;;;;;;;;;25.32;57.62;97248.38;578691;245;65715;-76
2022/03/25 10:39:36;;;;;;;;;;;;;;;25.32;57.71;97240.30;578823;245;66246;-74
2022/03/25 10:42:05;;;;;;;;;;;;;;;25.34;56.15;97239.99;578756;245;65453;-75
2022/03/25 10:44:41;;;;;;;;;;;;;;;25.34;56.02;97242.68;578832;245;66803;-78
2022/03/25 10:47:10;;;;;;;;;;;;;;;25.34;57.79;97246.16;578794;245;66710;-64
2022/03/25 10:49:43;;;;;;;;;;;;;;;25.34;57.27;97246.16;577672;245;65321;-70
2022/03/25 10:52:26;;;;;;;;;;;;;;;25.35;58.37;97237.02;578696;245;64400;-70
2022/03/25 10:54:56;;;;;;;;;;;;;;;25.36;56.71;97241.30;578137;245;64802;-71
2022/03/25 10:57:24;;;;;;;;;;;;;;;25.34;58.31;97240.78;577623;245;63937;-65
2022/03/25 10:59:53;;;;;;;;;;;;;;;25.31;51.65;97238.69;578685;242;67034;-64
2022/03/25 11:02:22;;;;;;;;;;;;;;;25.38;54.19;97241.81;578417;245;64556;-65
2022/03/25 11:04:50;;;;;;;;;;;;;;;25.41;55.74;97235.05;578777;245;65300;-65
2022/03/25 11:07:22;;;;;;;;;;;;;;;25.41;56.43;97238.53;578798;245;64680;-65
2022/03/25 11:09:48;;;;;;;;;;;;;;;25.42;56.39;97236.63;578579;244;64769;-65
2022/03/25 11:12:15;;;;;;;;;;;;;;;25.42;56.75;97240.11;578689;242;63233;-65
2022/03/25 11:14:43;;;;;;;;;;;;;;;25.42;56.30;97242.80;578667;245;64482;-65
2022/03/25 11:17:11;;;;;;;;;;;;;;;25.42;57.04;97240.11;578204;245;64752;-65
2022/03/25 11:19:39;;;;;;;;;;;;;;;25.42;56.66;97234.73;575792;245;63423;-64
2022/03/25 11:22:07;;;;;;;;;;;;;;;25.43;56.79;97230.97;575632;246;65203;-64
2022/03/25 11:24:36;;;;;;;;;;;;;;;25.43;56.53;97236.34;575642;246;66830;-64
2022/03/25 11:27:05;;;;;;;;;;;;;;;25.43;58.30;97236.34;575671;246;65564;-64
2022/03/25 11:29:34;;;;;;;;;;;;;;;25.43;57.86;97230.97;575611;244;64376;-63
2022/03/25 11:32:06;;;;;;;;;;;;;;;25.42;57.62;97229.35;575573;246;66862;-63
2022/03/25 11:34:36;;;;;;;;;;;;;;;25.43;58.38;97249.01;575538;246;63420;-63
2022/03/25 11:37:26;;;;;;;;;;;;;;;25.43;57.20;97247.11;575515;245;67029;-64
2022/03/25 11:40:09;;;;;;;;;;;;;;;25.43;57.19;97236.34;575335;244;64773;-66
2022/03/25 11:42:38;;;;;;;;;;;;;;;25.43;58.50;97236.34;575667;246;63568;-69
2022/03/25 11:45:32;;;;;;;;;;;;;;;25.43;58.85;97236.34;575629;246;67071;-70
2022/03/25 11:48:08;;;;;;;;;;;;;;;25.42;58.55;97228.56;575548;245;64400;-70
2022/03/25 11:50:36;;;;;;;;;;;;;;;25.41;58.44;97221.59;575350;245;66313;-71
2022/03/25 11:53:13;;;;;;;;;;;;;;;25.41;58.53;97221.59;575526;246;50640;-71
2022/03/25 11:55:53;;;;;;;;;;;;;;;25.42;59.08;97223.97;575667;246;65573;-71
2022/03/25 11:58:23;;;;;;;;;;;;;;;25.43;59.42;97230.17;575697;246;65524;-74
2022/03/25 12:00:53;;;;;;;;;;;;;;;25.39;54.17;97235.33;575481;245;67065;-70
2022/03/25 12:03:21;;;;;;;;;;;;;;;25.40;59.98;97220.80;575723;246;66473;-75
2022/03/25 12:05:50;;;;;;;;;;;;;;;25.37;55.35;97228.64;575662;246;65409;-75
2022/03/25 12:08:39;;;;;;;;;;;;;;;25.38;56.00;97220.28;575469;245;66859;-75
2022/03/25 12:11:08;;;;;;;;;;;;;;;25.41;55.74;97200.07;575222;245;66914;-69
2022/03/25 12:13:55;;;;;;;;;;;;;;;25.43;56.81;97224.80;575536;246;65628;-69
2022/03/25 12:16:41;;;;;;;;;;;;;;;25.45;55.14;97207.27;575617;246;64636;-69
2022/03/25 12:19:10;;;;;;;;;;;;;;;25.45;56.99;97211.83;582864;242;66844;-70
2022/03/25 12:21:39;;;;;;;;;;;;;;;25.46;57.88;97227.69;585248;242;63437;-70
2022/03/25 12:24:07;;;;;;;;;;;;;;;25.47;58.27;97239.24;586151;242;67809;-72
2022/03/25 12:26:39;;;;;;;;;;;;;;;25.47;57.67;97215.81;586194;242;65506;-63
2022/03/25 12:29:08;;;;;;;;;;;;;;;25.48;57.71;97216.61;585646;242;63326;-64
2022/03/25 12:31:36;;;;;;;;;;;;;;;25.47;57.79;97196.98;585927;242;66339;-62
2022/03/25 12:34:09;;;;;;;;;;;;;;;25.49;57.87;97206.67;586228;242;66918;-62
2022/03/25 12:36:38;;;;;;;;;;;;;;;25.47;57.73;97217.72;585993;242;65321;-62
2022/03/25 12:39:09;;;;;;;;;;;;;;;25.47;59.84;97204.27;585467;242;67689;-62
2022/03/25 12:41:35;;;;;;;;;;;;;;;25.47;59.91;97199.67;586182;242;64684;-62
2022/03/25 12:44:03;;;;;;;;;;;;;;;25.47;60.13;97194.30;586144;242;65566;-63
2022/03/25 12:46:31;;;;;;;;;;;;;;;25.47;58.99;97190.81;586242;242;67927;-67
2022/03/25 12:49:06;;;;;;;;;;;;;;;25.47;60.40;97196.19;586255;242;66858;-66
2022/03/25 12:51:34;;;;;;;;;;;;;;;25.44;62.02;97197.58;586118;242;65668;-63
2022/03/25 12:54:03;;;;;;;;;;;;;;;25.42;60.32;97196.27;586247;242;67098;-63
2022/03/25 12:56:30;;;;;;;;;;;;;;;25.40;60.12;97201.97;586088;242;66864;-66
2022/03/25 12:58:59;;;;;;;;;;;;;;;25.39;60.31;97196.87;586268;242;63291;-63
2022/03/25 13:01:27;;;;;;;;;;;;;;;25.38;58.54;97188.00;586268;242;67073;-63
2022/03/25 13:03:55;;;;;;;;;;;;;;;25.38;58.60;97188.00;586204;242;66705;-62
2022/03/25 13:06:24;;;;;;;;;;;;;;;25.38;57.60;97195.28;586289;242;65394;-63
2022/03/25 13:08:52;;;;;;;;;;;;;;;25.37;58.78;97197.18;586208;242;66987;-64
2022/03/25 13:11:20;;;;;;;;;;;;;;;25.35;59.24;97196.67;585854;242;64805;-62
2022/03/25 13:13:48;;;;;;;;;;;;;;;25.34;58.18;97205.81;586230;242;63157;-63
2022/03/25 13:16:15;;;;;;;;;;;;;;;25.35;58.67;97202.05;586209;242;64674;-63
2022/03/25 13:18:43;;;;;;;;;;;;;;;25.35;57.92;97210.12;580813;242;64608;-63
2022/03/25 13:21:11;;;;;;;;;;;;;;;25.35;59.25;97207.43;575632;246;63541;-62
2022/03/25 13:23:39;;;;;;;;;;;;;;;25.34;58.48;97205.81;575657;246;66967;-63
2022/03/25 13:26:07;;;;;;;;;;;;;;;25.34;58.61;97197.74;575591;246;65021;-61
2022/03/25 13:28:36;;;;;;;;;;;;;;;25.34;58.73;97199.64;575667;246;65566;-63
2022/03/25 13:31:05;;;;;;;;;;;;;;;25.33;57.48;97182.70;575652;246;64745;-63
2022/03/25 13:33:46;;;;;;;;;;;;;;;25.34;59.46;97210.40;575584;246;67137;-63
2022/03/25 13:36:18;;;;;;;;;;;;;;;25.33;58.15;97192.67;575564;246;65381;-63
2022/03/25 13:38:51;;;;;;;;;;;;;;;25.33;58.45;97198.84;575596;246;66943;-71